Ride Results

Careflight (03-04-2005)
Ride distance: 80.0 km

Outcomes - Careflight (03-04-2005)
Division No. of Entries Retired / DNE Completed Withdrawn Ineligible V/O Percentage Completed
HW 17 - 13 4 - - 76.47%
MW 31 - 28 1 - 2 90.32%
LW 19 - 15 - - 4 78.95%
JN 7 - 3 1 - 3 42.86%
Totals 74 - 59 6 - 9 79.73%
Results - Careflight (03-04-2005)
No. Rider Horse Place Time Leg Speeds Total
Km/Hr
H/R bpm
Heavyweight
40 Allan Caslick Wollumbin Sambuca 1 5:07:00 16.7, 14.0 15.64 27, 45, 58 (Avg:51)
44 Kevin Sayer Kobarda's Jacq of Time 2 5:37:00 15.3, 12.6 14.24 38, 46, 55 (Avg:50)
48 Leanne Le Claire Aloha Kamahl 3 6:04:00 13.2, 13.0 13.19 37, 43, 47 (Avg:45)
32 Rex Cox Ausden Kon Tiki 4 6:19:00 13.1, 11.9 12.66 42, 44, 50 (Avg:47)
41 Steve Brooks Harmere Lahsa 5 6:40:00 12.9, 10.7 12.00 36, 42, 50 (Avg:46)
35 Mark Freeman Cedar Ridge Golden Heart 6 6:50:00 12.4, 10.6 11.71 36, 45, 50 (Avg:47)
42 Wayne Johnson Karlotta 7 7:47:00 10.2, 10.2 10.28 36, 45, 50 (Avg:47)
43 Mark Wormell Ausden Sahara Bey 8 7:50:00 11.1, 8.9 10.21 38, 46, 51 (Avg:48)
45 Alan Mackinder Magna Thor 9 8:13:00 10.8, 8.2 9.74 33, 43, 50 (Avg:46)
38 Neil Clarkson Espirit Sherwood 10 8:28:00 10.6, 7.9 9.45 28, 46, 52 (Avg:49)
37 Brad Jones Bey Espirit 10 8:28:00 10.6, 7.9 9.45 36, 48, 59 (Avg:53)
47 Craig Pinkney Koru Tamagin 12 8:33:00 10.6, 7.7 9.36 40, 53, 53 (Avg:53)
46 Gavin Groth Cherox Samtam 13 9:02:00 9.0, 8.5 8.86 32, 47, 55 (Avg:51)
36 Virginia Blain Worobil Koradji Widthdrawn L1 0:00:00 - - 37, 55 (Avg:55)
33 Frank Mollema A'Landell Image Widthdrawn L1 0:00:00 - - 38, 44 (Avg:44)
34 Shanie Norris Loyalty Greyeagle Widthdrawn L1 0:00:00 - - 30, 53 (Avg:53)
39 Haydn Fisher Kalim Widthdrawn P/R 0:00:00 - - 40
Middleweight
23 Howard Harris Harmere Turfan 1 (BC) 4:05:00 19.9, 18.9 19.59 36, 41, 40 (Avg:40)
11 Pauline Brewer Malu Vale Jahaan 2 4:05:10 19.9, 18.9 19.58 30, 40, 46 (Avg:43)
28 Brodie Freeman Cedar Ridge Fire N Gold 3 4:55:00 18.5, 13.5 16.27 36, 42, 47 (Avg:44)
31 Mark Harvey Judstan Sharwayn 4 5:47:00 14.5, 12.7 13.83 34, 46, 58 (Avg:52)
24 Katherin Schemann Harmere Asfuri 5 6:15:00 12.7, 12.8 12.80 34, 43, 43 (Avg:43)
27 Susan Luthy Coolahlee Park Margwah 6 6:19:00 13.2, 11.8 12.66 38, 42, 46 (Avg:44)
15 Duncan Satchell Alhambra Mirage 7 6:25:00 15.9, 9.1 12.47 36, 45, 51 (Avg:48)
5 Thomas Hermann TTH Headliner 8 7:14:00 11.4, 10.4 11.06 38, 39, 49 (Avg:44)
16 Peter Strickland Bara Park Mingari 9 7:17:00 11.9, 9.7 10.98 35, 44, 43 (Avg:43)
26 Gail Fisher Bara Park Prue Merrit 10 7:22:00 10.0, 12.5 10.86 35, 52, 45 (Avg:48)
29 Margot Shore Arnie 11 7:38:00 11.4, 9.1 10.48 37, 40, 52 (Avg:46)
25 Jennifer Gilbertson Kurrajong Shadad 12 7:47:00 10.6, 9.6 10.28 41, 46, 36 (Avg:41)
22 Deidre Wilcock Aussie Oy 12 7:47:00 10.6, 9.6 10.28 39, 49, 58 (Avg:53)
17 Brodie Ashman Alhambra Ice Dancer 14 8:13:00 11.5, 7.6 9.74 35, 43, 50 (Avg:46)
7 Naomi Djuric Cedar Ridge Khomoshon 14 8:13:00 10.8, 8.2 9.74 35, 41, 49 (Avg:45)
18 Susan Pritchard Kie-Al First Impression 14 8:13:00 11.5, 7.6 9.74 34, 39, 45 (Avg:42)
10 Dean Walkom Star of Persia 17 8:20:00 10.8, 8.0 9.60 40, 41, 50 (Avg:45)
1 Heinz Erni Greengrove Nureyev 18 8:28:00 14.2, 6.0 9.45 34, 38, 47 (Avg:42)
9 Allana Rempel Sabeik 18 8:28:00 12.0, 6.9 9.45 35, 40, 48 (Avg:44)
14 Steve Locke Hamamas Vivaldi 20 8:30:00 10.4, 8.0 9.41 49, 49, 57 (Avg:53)
4 Peter Brown Heste Arabique Waterloo 21 8:33:00 10.5, 7.8 9.36 42, 45, 60 (Avg:52)
21 Stacy Burke Devi 22 8:44:00 10.5, 7.5 9.16 38, 40, 42 (Avg:41)
20 Annette Truman El Shataan Adu Baba 22 8:44:00 10.9, 7.2 9.16 38, 48, 56 (Avg:52)
2 Sonya Ruprecht Jiah Bandit 24 8:58:00 9.6, 7.9 8.92 41, 51, 60 (Avg:55)
3 Cindy Wagner Summerwood Naivasha 24 8:58:00 9.6, 7.9 8.92 44, 40, 59 (Avg:49)
30 April Bonham Joda Shantilly 26 9:00:00 10.3, 7.2 8.89 35, 51, 60 (Avg:55)
6 Rhiannon Groth Abrock Hot 'N' Spicey 27 9:02:00 9.0, 8.5 8.86 32, 37, 44 (Avg:40)
12 Kimberley Monger Balfazaar Lousha 28 3:37:00 13.8 13.82 41, 43 (Avg:43)
13 Graeme McKimm Rebel Robert Rivoli Lame L2 0:00:00 10.8, 8.0 - 41, 47, 51 (Avg:49)
8 Brad Randall Springmead Felix Lame L2 0:00:00 12.0, 6.9 - 38, 54, 52 (Avg:53)
19 Elisabeth Thorn Sharkey Widthdrawn P/R 0:00:00 - - 40
Lightweight
50 Jacky Barlow Shahaven Cobbity Mist 1 6:00:00 14.4, 11.8 13.33 36, 41, 52 (Avg:46)
57 Brad Dillon Ebonglen Holmegaard 1 (BC) 6:00:00 14.1, 12.1 13.33 33, 46, 49 (Avg:47)
63 Felicity Baird Buckwell Park Premonition 3 6:15:00 12.7, 12.8 12.80 40, 43, 45 (Avg:44)
62 Melanie Anderson Markus Zen Galaxy 4 6:19:00 13.1, 11.9 12.66 39, 44, 57 (Avg:50)
65 Julie Brooks Aloha Byshara 5 6:40:00 12.9, 10.7 12.00 36, 44, 60 (Avg:52)
60 Shan Symons Ningadoo Envy 6 7:22:00 10.0, 12.5 10.86 33, 35, 41 (Avg:38)
66 Tara Brown Mindari Quicksilver 7 7:47:00 11.4, 8.7 10.28 32, 44, 48 (Avg:46)
49 Linda Logan Follydown Topaz 8 7:51:00 11.4, 8.5 10.19 37, 44, 55 (Avg:49)
53 Ruth Lee-Hausman PPP Kizmit 9 8:25:00 10.4, 8.2 9.50 36, 45, 56 (Avg:50)
51 Sue Todd Shakista 9 8:25:00 10.4, 8.2 9.50 41, 50, 54 (Avg:52)
54 Sally Felton Misty Morning 11 8:26:00 10.7, 7.8 9.49 32, 48, 52 (Avg:50)
59 Tracy Haack Bandeisha 11 8:26:00 10.7, 7.9 9.49 41, 40, 51 (Avg:45)
61 Jacinda Somerville Revelwood Lunetta 13 8:28:00 10.9, 7.7 9.45 28, 51, 47 (Avg:49)
52 Johanna Yule Horse Rescue Yasmin 13 8:28:00 11.9, 7.0 9.45 34, 53, 59 (Avg:56)
67 Liz McAuley Jindalee 15 9:00:00 10.7, 6.8 8.89 35, 42, 49 (Avg:45)
64 Jo Arblaster Silver 'N' Blue Lame L1 0:00:00 10.5 - 32, 46 (Avg:46)
56 Robin Gossip Koorang Endeavour Lame L1 0:00:00 7.1 - 38, 55 (Avg:55)
55 Rhonda Locke Hamamas Kabung Heart Rate L1 0:00:00 10.4 - 35, 60 (Avg:60)
58 Lyndell McGowan Jaytee Royal Consort Lame L1 0:00:00 10.3 - 28, 40 (Avg:40)
Junior
70 Allix Jones Shellal Cattle King Flyte 1 (BC) 5:38:00 15.5, 12.4 14.20 36, 44, 46 (Avg:45)
69 Zoe Locke Balara Kymono 2 8:21:00 10.4, 8.3 9.58 37, 41, 55 (Avg:48)
74 Emily McAuley Kalkadoon Kasper 3 9:00:00 10.7, 6.8 8.89 36, 44, 48 (Avg:46)
71 Shelley Jones Rise 'N' Shine Lame L2 0:00:00 15.5, 12.4 - 31, 46, 56 (Avg:51)
73 Louise Wormell Ausden Monet Lame L2 0:00:00 11.1, 8.8 - 30, 44, 45 (Avg:44)
68 Jamie Mollema Harmere Sirikit Lame L1 0:00:00 12.5 - 37, 44 (Avg:44)
72 Brooke Warner Webbs Creek Ripling Widthdrawn L1 0:00:00 - - 36, 41 (Avg:41)